Time;durP1;ratioP1;P1;durP2;ratioP2;P2;SDS_P1;SDS_P2;PMS_P1;PMS_P2;Temp;Humidity;BMP_temperature;BMP_pressure;BME280_temperature;BME280_humidity;BME280_pressure;Samples;Min_cycle;Max_cycle;Signal;HPM_P1;HPM_P2
2024/03/26 00:00:28;;;;;;;;;;;20.60;49.90;;;;;;1526981;75;768;-70
2024/03/26 00:02:30;;;;;;;;;;;20.60;49.90;;;;;;1533170;76;770;-71
2024/03/26 00:04:32;;;;;;;;;;;20.50;49.90;;;;;;1540113;75;616;-71
2024/03/26 00:06:34;;;;;;;;;;;20.60;49.90;;;;;;1538253;75;773;-69
2024/03/26 00:08:36;;;;;;;;;;;20.50;49.90;;;;;;1541936;75;618;-71
2024/03/26 00:10:38;;;;;;;;;;;20.50;49.90;;;;;;1535695;76;724;-71
2024/03/26 00:12:40;;;;;;;;;;;20.50;49.90;;;;;;1533255;76;622;-68
2024/03/26 00:14:42;;;;;;;;;;;20.60;49.90;;;;;;1535310;75;1132;-69
2024/03/26 00:16:44;;;;;;;;;;;20.50;50.00;;;;;;1535206;75;1940;-68
2024/03/26 00:18:46;;;;;;;;;;;20.50;50.00;;;;;;1531970;76;735;-69
2024/03/26 00:20:47;;;;;;;;;;;20.50;50.00;;;;;;1531834;76;803;-72
2024/03/26 00:22:49;;;;;;;;;;;20.60;50.00;;;;;;1529398;75;655;-70
2024/03/26 00:24:51;;;;;;;;;;;20.50;50.00;;;;;;1532890;76;1100;-71
2024/03/26 00:26:53;;;;;;;;;;;20.50;50.00;;;;;;1530262;75;727;-70
2024/03/26 00:28:55;;;;;;;;;;;20.50;50.00;;;;;;1542213;75;950;-71
2024/03/26 00:30:57;;;;;;;;;;;20.50;50.00;;;;;;1527833;75;674;-72
2024/03/26 00:32:59;;;;;;;;;;;20.60;50.00;;;;;;1527238;76;777;-72
2024/03/26 00:35:01;;;;;;;;;;;20.50;50.00;;;;;;1528895;76;1126;-70
2024/03/26 00:37:02;;;;;;;;;;;20.60;50.00;;;;;;1534252;76;1929;-72
2024/03/26 00:39:05;;;;;;;;;;;20.50;50.00;;;;;;1526156;76;771;-69
2024/03/26 00:41:06;;;;;;;;;;;20.50;50.00;;;;;;1529117;75;731;-71
2024/03/26 00:43:08;;;;;;;;;;;20.50;50.00;;;;;;1530387;76;622;-71
2024/03/26 00:45:10;;;;;;;;;;;20.60;50.10;;;;;;1527282;75;1148;-71
2024/03/26 00:47:12;;;;;;;;;;;20.60;50.10;;;;;;1534000;75;713;-71
2024/03/26 00:49:14;;;;;;;;;;;20.50;50.10;;;;;;1535152;75;734;-70
2024/03/26 00:51:16;;;;;;;;;;;20.50;50.10;;;;;;1532099;76;811;-70
2024/03/26 00:53:18;;;;;;;;;;;20.50;50.10;;;;;;1532006;76;606;-69
2024/03/26 00:55:20;;;;;;;;;;;20.50;50.10;;;;;;1535045;75;1186;-70
2024/03/26 00:57:22;;;;;;;;;;;20.50;50.10;;;;;;1534482;75;1932;-68
2024/03/26 00:59:23;;;;;;;;;;;20.50;50.10;;;;;;1542048;75;676;-71
2024/03/26 01:01:25;;;;;;;;;;;20.50;50.20;;;;;;1531431;75;749;-68
2024/03/26 01:03:27;;;;;;;;;;;20.60;50.10;;;;;;1527234;75;637;-69
2024/03/26 01:05:29;;;;;;;;;;;20.50;50.10;;;;;;1542633;75;1154;-70
2024/03/26 01:07:31;;;;;;;;;;;20.50;50.10;;;;;;1531647;76;730;-71
2024/03/26 01:09:33;;;;;;;;;;;20.50;50.10;;;;;;1525412;75;563;-71
2024/03/26 01:11:35;;;;;;;;;;;20.40;50.00;;;;;;1526421;76;617;-70
2024/03/26 01:13:37;;;;;;;;;;;20.50;50.10;;;;;;1537939;75;738;-71
2024/03/26 01:15:39;;;;;;;;;;;20.50;50.10;;;;;;1522404;76;1155;-70
2024/03/26 01:17:40;;;;;;;;;;;20.50;50.10;;;;;;1535896;75;1935;-67
2024/03/26 01:19:42;;;;;;;;;;;20.50;50.10;;;;;;1534161;75;677;-67
2024/03/26 01:21:44;;;;;;;;;;;20.40;50.00;;;;;;1535803;75;933;-66
2024/03/26 01:23:46;;;;;;;;;;;20.50;50.10;;;;;;1529725;75;691;-71
2024/03/26 01:25:48;;;;;;;;;;;20.50;50.20;;;;;;1523732;75;1142;-69
2024/03/26 01:27:52;;;;;;;;;;;20.50;50.10;;;;;;1541281;75;701;-71
2024/03/26 01:29:54;;;;;;;;;;;20.50;50.10;;;;;;1535138;75;1624;-67
2024/03/26 01:31:55;;;;;;;;;;;20.40;50.00;;;;;;1529360;75;719;-69
2024/03/26 01:33:57;;;;;;;;;;;20.50;50.20;;;;;;1538423;75;716;-69
2024/03/26 01:35:59;;;;;;;;;;;20.50;50.20;;;;;;1534523;76;1126;-67
2024/03/26 01:38:01;;;;;;;;;;;20.50;50.20;;;;;;1532751;76;1959;-70
2024/03/26 01:40:03;;;;;;;;;;;20.50;50.20;;;;;;1522700;76;614;-71
2024/03/26 01:42:05;;;;;;;;;;;20.40;50.10;;;;;;1532753;76;725;-68
2024/03/26 01:44:07;;;;;;;;;;;20.40;50.10;;;;;;1527285;75;714;-71
2024/03/26 01:46:09;;;;;;;;;;;20.50;50.20;;;;;;1536311;75;1177;-70
2024/03/26 01:48:11;;;;;;;;;;;20.50;50.20;;;;;;1536843;75;750;-70
2024/03/26 01:50:13;;;;;;;;;;;20.50;50.20;;;;;;1526784;76;783;-70
2024/03/26 01:52:15;;;;;;;;;;;20.50;50.20;;;;;;1525088;76;739;-70
2024/03/26 01:54:17;;;;;;;;;;;20.40;50.10;;;;;;1530377;76;745;-70
2024/03/26 01:56:19;;;;;;;;;;;20.50;50.20;;;;;;1537313;75;1127;-70
2024/03/26 01:58:21;;;;;;;;;;;20.50;50.20;;;;;;1526109;76;801;-70
2024/03/26 02:00:24;;;;;;;;;;;20.50;50.20;;;;;;1530999;76;619;-71
2024/03/26 02:02:26;;;;;;;;;;;20.50;50.20;;;;;;1533650;76;869;-68
2024/03/26 02:04:28;;;;;;;;;;;20.50;50.20;;;;;;1538116;75;721;-69
2024/03/26 02:06:30;;;;;;;;;;;20.50;50.20;;;;;;1527710;75;1103;-70
2024/03/26 02:08:32;;;;;;;;;;;20.50;50.20;;;;;;1546429;75;786;-69
2024/03/26 02:10:34;;;;;;;;;;;20.40;50.10;;;;;;1531836;75;744;-71
2024/03/26 02:12:36;;;;;;;;;;;20.50;50.20;;;;;;1526874;76;755;-72
2024/03/26 02:14:38;;;;;;;;;;;20.50;50.20;;;;;;1529465;76;1130;-71
2024/03/26 02:16:40;;;;;;;;;;;20.50;50.20;;;;;;1529821;76;1928;-71
2024/03/26 02:18:42;;;;;;;;;;;20.40;50.10;;;;;;1537112;75;582;-67
2024/03/26 02:20:43;;;;;;;;;;;20.40;50.10;;;;;;1536392;75;700;-68
2024/03/26 02:22:45;;;;;;;;;;;20.40;50.20;;;;;;1523164;76;807;-69
2024/03/26 02:24:47;;;;;;;;;;;20.50;50.30;;;;;;1534099;76;1150;-71
2024/03/26 02:26:49;;;;;;;;;;;20.40;50.20;;;;;;1527767;76;698;-70
2024/03/26 02:28:53;;;;;;;;;;;20.40;50.20;;;;;;1535559;75;617;-70
2024/03/26 02:30:54;;;;;;;;;;;20.50;50.30;;;;;;1523713;76;1981;-71
2024/03/26 02:32:56;;;;;;;;;;;20.50;50.20;;;;;;1538317;75;721;-71
2024/03/26 02:34:59;;;;;;;;;;;20.40;50.20;;;;;;1526064;76;1220;-71
2024/03/26 02:37:01;;;;;;;;;;;20.40;50.20;;;;;;1533200;76;1894;-71
2024/03/26 02:39:03;;;;;;;;;;;20.50;50.20;;;;;;1521748;76;732;-71
2024/03/26 02:41:05;;;;;;;;;;;20.50;50.30;;;;;;1535550;76;730;-70
2024/03/26 02:43:07;;;;;;;;;;;20.50;50.30;;;;;;1525010;76;861;-70
2024/03/26 02:45:09;;;;;;;;;;;20.40;50.20;;;;;;1523023;76;1159;-69
2024/03/26 02:47:11;;;;;;;;;;;20.40;50.20;;;;;;1538538;75;757;-70
2024/03/26 02:49:13;;;;;;;;;;;20.50;50.30;;;;;;1538085;76;664;-71
2024/03/26 02:51:15;;;;;;;;;;;20.40;50.20;;;;;;1539695;75;678;-68
2024/03/26 02:53:23;;;;;;;;;;;20.50;50.30;;;;;;1525343;75;682;-71
2024/03/26 02:55:21;;;;;;;;;;;20.50;50.30;;;;;;1535160;75;1761;-69
2024/03/26 02:57:22;;;;;;;;;;;20.50;50.30;;;;;;1536929;76;1939;-68
2024/03/26 02:59:24;;;;;;;;;;;20.50;50.30;;;;;;1535510;76;927;-70
2024/03/26 03:01:26;;;;;;;;;;;20.50;50.30;;;;;;1525344;76;648;-70
2024/03/26 03:03:28;;;;;;;;;;;20.50;50.30;;;;;;1536941;75;751;-71
2024/03/26 03:05:30;;;;;;;;;;;20.50;50.30;;;;;;1525404;75;1140;-70
2024/03/26 03:07:32;;;;;;;;;;;20.40;50.30;;;;;;1513467;77;651;-71
2024/03/26 03:09:34;;;;;;;;;;;20.40;50.30;;;;;;1538163;75;746;-68
2024/03/26 03:11:36;;;;;;;;;;;20.40;50.30;;;;;;1530939;75;669;-70
2024/03/26 03:13:38;;;;;;;;;;;20.40;50.30;;;;;;1530379;76;634;-68
2024/03/26 03:15:40;;;;;;;;;;;20.50;50.40;;;;;;1535477;75;1097;-69
2024/03/26 03:17:42;;;;;;;;;;;20.50;50.40;;;;;;1530112;76;1941;-68
2024/03/26 03:19:44;;;;;;;;;;;20.40;50.40;;;;;;1534187;76;698;-68
2024/03/26 03:21:45;;;;;;;;;;;20.50;50.50;;;;;;1523760;76;687;-71
2024/03/26 03:23:47;;;;;;;;;;;20.40;50.30;;;;;;1532919;76;643;-68
2024/03/26 03:25:55;;;;;;;;;;;20.50;50.40;;;;;;1535696;76;1174;-70
2024/03/26 03:27:57;;;;;;;;;;;20.40;50.40;;;;;;1533662;76;596;-71
2024/03/26 03:29:59;;;;;;;;;;;20.40;50.40;;;;;;1534054;76;724;-71
2024/03/26 03:32:01;;;;;;;;;;;20.50;50.50;;;;;;1524258;76;734;-69
2024/03/26 03:34:03;;;;;;;;;;;20.50;50.60;;;;;;1526749;76;736;-68
2024/03/26 03:36:05;;;;;;;;;;;20.50;50.60;;;;;;1533640;75;1163;-69
2024/03/26 03:38:07;;;;;;;;;;;20.40;50.50;;;;;;1534087;76;1945;-71
2024/03/26 03:40:09;;;;;;;;;;;20.50;50.60;;;;;;1528376;76;745;-71
2024/03/26 03:42:11;;;;;;;;;;;20.50;50.60;;;;;;1520763;76;806;-72
2024/03/26 03:44:12;;;;;;;;;;;20.40;50.50;;;;;;1536857;76;736;-68
2024/03/26 03:46:14;;;;;;;;;;;20.50;50.60;;;;;;1533862;76;1173;-71
2024/03/26 03:48:16;;;;;;;;;;;20.50;50.60;;;;;;1524136;76;688;-71
2024/03/26 03:50:18;;;;;;;;;;;20.50;50.60;;;;;;1525060;76;708;-67
2024/03/26 03:52:21;;;;;;;;;;;20.50;50.60;;;;;;1524823;76;668;-68
2024/03/26 03:54:23;;;;;;;;;;;20.50;50.60;;;;;;1544939;75;695;-70
2024/03/26 03:56:25;;;;;;;;;;;20.50;50.60;;;;;;1528218;75;1076;-70
2024/03/26 03:58:27;;;;;;;;;;;20.50;50.70;;;;;;1535661;75;1951;-71
2024/03/26 04:00:29;;;;;;;;;;;20.40;50.50;;;;;;1521873;75;706;-70
2024/03/26 04:02:31;;;;;;;;;;;20.50;50.60;;;;;;1527313;75;702;-69
2024/03/26 04:04:33;;;;;;;;;;;20.50;50.70;;;;;;1533542;75;590;-70
2024/03/26 04:06:34;;;;;;;;;;;20.40;50.70;;;;;;1525575;75;1131;-70
2024/03/26 04:08:36;;;;;;;;;;;20.50;50.70;;;;;;1521916;76;631;-71
2024/03/26 04:10:41;;;;;;;;;;;20.40;50.70;;;;;;1537638;75;685;-70
2024/03/26 04:12:43;;;;;;;;;;;20.50;50.70;;;;;;1528953;76;679;-71
2024/03/26 04:14:45;;;;;;;;;;;20.50;50.80;;;;;;1542702;75;1106;-70
2024/03/26 04:16:47;;;;;;;;;;;20.50;50.80;;;;;;1535691;75;724;-71
2024/03/26 04:18:49;;;;;;;;;;;20.50;50.80;;;;;;1521207;76;1943;-71
2024/03/26 04:20:51;;;;;;;;;;;20.50;50.80;;;;;;1531046;76;744;-69
2024/03/26 04:22:52;;;;;;;;;;;20.40;50.70;;;;;;1536251;75;689;-69
2024/03/26 04:24:54;;;;;;;;;;;20.40;50.80;;;;;;1526411;76;1139;-68
2024/03/26 04:26:56;;;;;;;;;;;20.50;50.90;;;;;;1529762;76;630;-72
2024/03/26 04:28:58;;;;;;;;;;;20.50;50.90;;;;;;1535433;75;687;-68
2024/03/26 04:31:00;;;;;;;;;;;20.60;50.90;;;;;;1534106;76;653;-68
2024/03/26 04:33:02;;;;;;;;;;;20.50;50.90;;;;;;1544293;75;765;-70
2024/03/26 04:35:04;;;;;;;;;;;20.50;51.00;;;;;;1536767;75;1177;-70
2024/03/26 04:37:06;;;;;;;;;;;20.50;51.00;;;;;;1528642;76;701;-67
2024/03/26 04:39:09;;;;;;;;;;;20.50;51.00;;;;;;1530599;76;1954;-69
2024/03/26 04:41:11;;;;;;;;;;;20.50;51.00;;;;;;1527460;75;700;-71
2024/03/26 04:43:13;;;;;;;;;;;20.50;51.00;;;;;;1529314;76;747;-70
2024/03/26 04:45:15;;;;;;;;;;;20.60;51.00;;;;;;1527594;76;1196;-71
2024/03/26 04:47:16;;;;;;;;;;;20.50;51.00;;;;;;1530720;76;759;-71
2024/03/26 04:49:18;;;;;;;;;;;20.50;51.00;;;;;;1530464;76;739;-70
2024/03/26 04:51:21;;;;;;;;;;;20.50;50.90;;;;;;1531240;75;764;-68
2024/03/26 04:53:22;;;;;;;;;;;20.50;50.90;;;;;;1533496;75;790;-69
2024/03/26 04:55:24;;;;;;;;;;;20.50;50.90;;;;;;1527909;75;1149;-69
2024/03/26 04:57:26;;;;;;;;;;;20.50;51.00;;;;;;1521184;75;1950;-70
2024/03/26 04:59:28;;;;;;;;;;;20.50;51.00;;;;;;1541181;75;603;-71
2024/03/26 05:01:30;;;;;;;;;;;20.50;51.00;;;;;;1533042;76;848;-69
2024/03/26 05:03:32;;;;;;;;;;;20.50;51.00;;;;;;1525254;76;716;-69
2024/03/26 05:05:34;;;;;;;;;;;20.50;51.00;;;;;;1538011;75;1171;-67
2024/03/26 05:07:36;;;;;;;;;;;20.50;51.10;;;;;;1543247;75;741;-66
2024/03/26 05:09:38;;;;;;;;;;;20.50;51.10;;;;;;1534449;75;634;-68
2024/03/26 05:11:39;;;;;;;;;;;20.50;51.10;;;;;;1531629;76;717;-69
2024/03/26 05:13:41;;;;;;;;;;;20.50;51.10;;;;;;1535869;76;733;-67
2024/03/26 05:15:43;;;;;;;;;;;20.50;51.30;;;;;;1533405;76;1170;-70
2024/03/26 05:17:45;;;;;;;;;;;20.50;48.40;;;;;;1533234;76;1936;-69
2024/03/26 05:19:47;;;;;;;;;;;20.50;48.50;;;;;;1540716;75;766;-69
2024/03/26 05:21:49;;;;;;;;;;;20.50;48.60;;;;;;1543992;75;731;-69
2024/03/26 05:23:51;;;;;;;;;;;20.40;48.60;;;;;;1528183;76;822;-70
2024/03/26 05:25:52;;;;;;;;;;;20.40;48.40;;;;;;1536936;75;1197;-70
2024/03/26 05:27:54;;;;;;;;;;;20.40;48.40;;;;;;1534527;76;751;-70
2024/03/26 05:29:56;;;;;;;;;;;20.40;48.50;;;;;;1535132;75;635;-68
2024/03/26 05:31:58;;;;;;;;;;;20.30;48.60;;;;;;1538367;75;790;-70
2024/03/26 05:34:00;;;;;;;;;;;20.30;48.90;;;;;;1531436;76;739;-69
2024/03/26 05:36:02;;;;;;;;;;;20.40;49.20;;;;;;1530534;75;1145;-66
2024/03/26 05:38:04;;;;;;;;;;;20.40;49.50;;;;;;1534345;76;1935;-66
2024/03/26 05:40:06;;;;;;;;;;;20.80;48.90;;;;;;1541511;75;839;-66
2024/03/26 05:42:08;;;;;;;;;;;20.30;46.30;;;;;;1536799;76;793;-69
2024/03/26 05:44:10;;;;;;;;;;;20.40;45.30;;;;;;1539529;75;792;-66
2024/03/26 05:46:12;;;;;;;;;;;20.20;43.90;;;;;;1535588;75;1188;-66
2024/03/26 05:48:14;;;;;;;;;;;20.20;43.10;;;;;;1542716;75;790;-66
2024/03/26 05:50:15;;;;;;;;;;;20.10;43.30;;;;;;1539799;76;837;-67
2024/03/26 05:52:17;;;;;;;;;;;20.10;42.90;;;;;;1532371;76;788;-67
2024/03/26 05:54:19;;;;;;;;;;;20.00;42.10;;;;;;1531303;75;853;-68
2024/03/26 05:56:21;;;;;;;;;;;19.90;42.60;;;;;;1535812;75;1133;-68
2024/03/26 05:58:23;;;;;;;;;;;19.90;43.00;;;;;;1528501;75;1931;-68
2024/03/26 06:00:25;;;;;;;;;;;19.90;42.50;;;;;;1534724;75;784;-67
2024/03/26 06:02:27;;;;;;;;;;;19.80;42.00;;;;;;1530024;76;692;-65
2024/03/26 06:04:29;;;;;;;;;;;19.70;42.20;;;;;;1532814;76;751;-71
2024/03/26 06:06:31;;;;;;;;;;;19.70;42.30;;;;;;1539161;75;1106;-68
2024/03/26 06:08:33;;;;;;;;;;;19.60;41.50;;;;;;1535645;75;949;-69
2024/03/26 06:10:35;;;;;;;;;;;19.60;41.90;;;;;;1524332;75;799;-70
2024/03/26 06:12:40;;;;;;;;;;;19.60;41.70;;;;;;1533142;76;1049;-69
2024/03/26 06:14:41;;;;;;;;;;;19.60;41.60;;;;;;1537313;75;1251;-68
2024/03/26 06:16:43;;;;;;;;;;;19.50;41.70;;;;;;1540153;75;748;-69
2024/03/26 06:18:44;;;;;;;;;;;19.50;41.50;;;;;;1535457;76;1934;-68
2024/03/26 06:20:46;;;;;;;;;;;19.50;41.60;;;;;;1538341;76;758;-68
2024/03/26 06:22:48;;;;;;;;;;;19.40;41.40;;;;;;1540493;75;734;-69
2024/03/26 06:24:50;;;;;;;;;;;19.50;41.50;;;;;;1541504;75;1185;-69
2024/03/26 06:26:52;;;;;;;;;;;19.40;41.40;;;;;;1537767;75;751;-69
2024/03/26 06:28:55;;;;;;;;;;;19.30;41.10;;;;;;1522834;76;745;-68
2024/03/26 06:30:57;;;;;;;;;;;19.40;41.20;;;;;;1540388;75;631;-69
2024/03/26 06:32:59;;;;;;;;;;;19.30;40.70;;;;;;1526943;76;717;-69
2024/03/26 06:35:01;;;;;;;;;;;19.30;41.00;;;;;;1537549;75;1134;-69
2024/03/26 06:37:03;;;;;;;;;;;19.20;40.80;;;;;;1531084;75;777;-71
2024/03/26 06:39:05;;;;;;;;;;;19.20;40.90;;;;;;1527994;76;1927;-70
2024/03/26 06:41:07;;;;;;;;;;;19.20;40.80;;;;;;1530755;76;700;-67
2024/03/26 06:43:09;;;;;;;;;;;19.10;40.70;;;;;;1531835;76;771;-68
2024/03/26 06:45:10;;;;;;;;;;;19.20;40.90;;;;;;1535370;75;1153;-69
2024/03/26 06:47:12;;;;;;;;;;;19.10;40.90;;;;;;1526213;76;712;-69
2024/03/26 06:49:15;;;;;;;;;;;19.10;40.70;;;;;;1529626;75;744;-69
2024/03/26 06:51:17;;;;;;;;;;;19.20;40.70;;;;;;1530238;75;795;-68
2024/03/26 06:53:18;;;;;;;;;;;19.10;40.60;;;;;;1540629;75;689;-67
2024/03/26 06:55:21;;;;;;;;;;;19.20;40.70;;;;;;1526058;76;1200;-70
2024/03/26 06:57:23;;;;;;;;;;;19.10;40.60;;;;;;1541456;75;685;-69
2024/03/26 06:59:25;;;;;;;;;;;19.10;40.50;;;;;;1536470;76;1928;-68
2024/03/26 07:01:27;;;;;;;;;;;19.10;40.50;;;;;;1525347;76;742;-69
2024/03/26 07:03:29;;;;;;;;;;;19.00;40.50;;;;;;1541016;75;659;-69
2024/03/26 07:05:31;;;;;;;;;;;19.10;40.60;;;;;;1527888;75;1158;-69
2024/03/26 07:07:33;;;;;;;;;;;19.00;40.40;;;;;;1530610;75;670;-68
2024/03/26 07:09:38;;;;;;;;;;;19.00;40.30;;;;;;1528620;76;616;-71
2024/03/26 07:11:38;;;;;;;;;;;19.00;40.50;;;;;;1529859;75;1660;-70
2024/03/26 07:13:40;;;;;;;;;;;19.00;40.30;;;;;;1534707;75;822;-69
2024/03/26 07:15:42;;;;;;;;;;;19.00;40.20;;;;;;1516855;75;1170;-68
2024/03/26 07:17:44;;;;;;;;;;;19.00;40.00;;;;;;1526935;76;694;-69
2024/03/26 07:19:46;;;;;;;;;;;19.00;40.00;;;;;;1532703;75;1929;-71
2024/03/26 07:21:48;;;;;;;;;;;19.00;40.30;;;;;;1522101;76;639;-67
2024/03/26 07:23:50;;;;;;;;;;;19.00;40.20;;;;;;1534506;75;651;-66
2024/03/26 07:25:51;;;;;;;;;;;19.00;40.10;;;;;;1543067;75;1137;-68
2024/03/26 07:27:53;;;;;;;;;;;19.00;40.30;;;;;;1541236;75;707;-73
2024/03/26 07:29:55;;;;;;;;;;;18.90;40.20;;;;;;1528163;75;703;-68
2024/03/26 07:31:57;;;;;;;;;;;18.90;40.20;;;;;;1520337;76;739;-69
2024/03/26 07:33:59;;;;;;;;;;;18.90;40.20;;;;;;1520250;75;669;-68
2024/03/26 07:36:01;;;;;;;;;;;19.50;40.30;;;;;;1526572;76;1161;-69
2024/03/26 07:38:03;;;;;;;;;;;19.00;39.90;;;;;;1524379;76;710;-69
2024/03/26 07:40:09;;;;;;;;;;;18.90;40.20;;;;;;1538320;75;1935;-69
2024/03/26 07:42:09;;;;;;;;;;;18.90;40.20;;;;;;1527950;75;1564;-73
2024/03/26 07:44:11;;;;;;;;;;;18.90;39.90;;;;;;1529054;76;735;-69
2024/03/26 07:46:13;;;;;;;;;;;18.90;40.00;;;;;;1527642;75;1169;-69
2024/03/26 07:48:14;;;;;;;;;;;18.90;40.10;;;;;;1524753;75;722;-69
2024/03/26 07:50:16;;;;;;;;;;;18.90;40.00;;;;;;1529876;76;809;-70
2024/03/26 07:52:18;;;;;;;;;;;18.90;39.90;;;;;;1530908;76;804;-71
2024/03/26 07:54:22;;;;;;;;;;;18.90;39.80;;;;;;1537828;75;779;-66
2024/03/26 07:56:24;;;;;;;;;;;18.90;40.00;;;;;;1533798;75;1179;-70
2024/03/26 07:58:25;;;;;;;;;;;18.90;40.00;;;;;;1531345;75;735;-69
2024/03/26 08:00:28;;;;;;;;;;;18.90;40.00;;;;;;1525849;76;1943;-70
2024/03/26 08:02:29;;;;;;;;;;;18.90;39.90;;;;;;1544033;75;757;-69
2024/03/26 08:04:31;;;;;;;;;;;18.90;40.00;;;;;;1525659;75;681;-69
2024/03/26 08:06:33;;;;;;;;;;;18.90;40.00;;;;;;1544190;75;1127;-69
2024/03/26 08:08:35;;;;;;;;;;;18.90;39.90;;;;;;1531249;75;627;-69
2024/03/26 08:10:37;;;;;;;;;;;18.90;40.10;;;;;;1539485;75;755;-69
2024/03/26 08:12:39;;;;;;;;;;;18.90;40.10;;;;;;1538280;75;721;-69
2024/03/26 08:14:41;;;;;;;;;;;18.90;40.10;;;;;;1537871;75;1090;-69
2024/03/26 08:16:43;;;;;;;;;;;18.90;40.00;;;;;;1527316;75;655;-70
2024/03/26 08:18:45;;;;;;;;;;;18.90;40.00;;;;;;1522993;75;1940;-70
2024/03/26 08:20:47;;;;;;;;;;;19.00;39.80;;;;;;1536913;76;840;-69
2024/03/26 08:22:48;;;;;;;;;;;18.90;39.80;;;;;;1537120;76;809;-72
2024/03/26 08:24:50;;;;;;;;;;;19.00;40.00;;;;;;1528470;76;1142;-68
2024/03/26 08:26:52;;;;;;;;;;;19.00;40.00;;;;;;1534286;76;803;-69
2024/03/26 08:28:54;;;;;;;;;;;19.00;39.80;;;;;;1531149;76;746;-70
2024/03/26 08:30:56;;;;;;;;;;;18.90;39.70;;;;;;1531091;76;800;-68
2024/03/26 08:32:58;;;;;;;;;;;19.00;39.70;;;;;;1530937;75;623;-68
2024/03/26 08:35:00;;;;;;;;;;;19.00;39.80;;;;;;1532356;75;1166;-69
2024/03/26 08:37:01;;;;;;;;;;;19.00;39.70;;;;;;1527878;76;730;-71
2024/03/26 08:39:04;;;;;;;;;;;19.00;39.80;;;;;;1540673;75;1941;-69
2024/03/26 08:41:07;;;;;;;;;;;19.00;40.00;;;;;;1531104;76;689;-69
2024/03/26 08:43:09;;;;;;;;;;;19.00;40.00;;;;;;1538041;76;716;-69
2024/03/26 08:45:11;;;;;;;;;;;19.00;39.90;;;;;;1534480;75;1100;-68
2024/03/26 08:47:13;;;;;;;;;;;19.00;40.00;;;;;;1533587;76;759;-69
2024/03/26 08:49:14;;;;;;;;;;;19.00;40.00;;;;;;1530929;75;839;-71
2024/03/26 08:51:16;;;;;;;;;;;19.00;40.00;;;;;;1526881;75;705;-70
2024/03/26 08:53:18;;;;;;;;;;;19.10;40.20;;;;;;1517347;76;932;-69
2024/03/26 08:55:20;;;;;;;;;;;19.00;39.90;;;;;;1533178;75;1173;-67
2024/03/26 08:57:22;;;;;;;;;;;19.10;40.10;;;;;;1535474;75;783;-69
2024/03/26 08:59:25;;;;;;;;;;;19.10;40.20;;;;;;1537925;75;1916;-68
2024/03/26 09:01:27;;;;;;;;;;;19.10;40.10;;;;;;1535977;75;751;-71
2024/03/26 09:03:29;;;;;;;;;;;19.10;40.10;;;;;;1541606;75;787;-69
2024/03/26 09:05:31;;;;;;;;;;;19.10;40.10;;;;;;1535064;76;1159;-68
2024/03/26 09:07:33;;;;;;;;;;;19.10;40.10;;;;;;1545239;75;724;-68
2024/03/26 09:09:35;;;;;;;;;;;19.20;40.10;;;;;;1539651;75;805;-70
2024/03/26 09:11:37;;;;;;;;;;;19.10;40.20;;;;;;1537817;75;713;-68
2024/03/26 09:13:44;;;;;;;;;;;19.20;40.20;;;;;;1538714;75;799;-69
2024/03/26 09:15:43;;;;;;;;;;;19.20;40.20;;;;;;1533126;75;1604;-67
2024/03/26 09:17:45;;;;;;;;;;;19.20;40.20;;;;;;1537116;75;874;-69
2024/03/26 09:19:47;;;;;;;;;;;19.20;40.30;;;;;;1538378;75;1936;-69
2024/03/26 09:21:49;;;;;;;;;;;19.30;40.50;;;;;;1536402;75;742;-71
2024/03/26 09:23:51;;;;;;;;;;;19.30;40.70;;;;;;1527660;76;731;-68
2024/03/26 09:25:53;;;;;;;;;;;19.40;40.90;;;;;;1535071;76;1162;-67
2024/03/26 09:27:54;;;;;;;;;;;19.40;40.90;;;;;;1520767;76;925;-69
2024/03/26 09:29:57;;;;;;;;;;;19.40;41.00;;;;;;1529842;75;795;-69
2024/03/26 09:31:58;;;;;;;;;;;19.40;41.20;;;;;;1532802;76;786;-68
2024/03/26 09:34:00;;;;;;;;;;;19.40;41.20;;;;;;1527514;76;740;-69
2024/03/26 09:36:02;;;;;;;;;;;19.50;41.40;;;;;;1534324;74;1178;-69
2024/03/26 09:38:05;;;;;;;;;;;19.50;41.50;;;;;;1538593;75;801;-68
2024/03/26 09:40:07;;;;;;;;;;;19.50;41.50;;;;;;1533095;75;1914;-69
2024/03/26 09:42:09;;;;;;;;;;;19.60;41.70;;;;;;1533976;76;790;-69
2024/03/26 09:44:11;;;;;;;;;;;19.50;41.70;;;;;;1529779;76;807;-71
2024/03/26 09:46:14;;;;;;;;;;;19.60;41.80;;;;;;1534682;76;1157;-67
2024/03/26 09:48:16;;;;;;;;;;;19.60;41.90;;;;;;1529435;76;824;-69
2024/03/26 09:50:19;;;;;;;;;;;19.60;42.00;;;;;;1535992;75;743;-69
2024/03/26 09:52:21;;;;;;;;;;;19.60;42.10;;;;;;1515938;76;658;-69
2024/03/26 09:54:22;;;;;;;;;;;19.70;42.30;;;;;;1535229;75;765;-70
2024/03/26 09:56:24;;;;;;;;;;;19.60;42.20;;;;;;1538908;75;1163;-69
2024/03/26 09:58:26;;;;;;;;;;;19.60;42.30;;;;;;1532513;76;655;-69
2024/03/26 10:00:28;;;;;;;;;;;19.70;42.50;;;;;;1536029;75;1923;-69
2024/03/26 10:02:30;;;;;;;;;;;19.70;42.60;;;;;;1538866;75;790;-70
2024/03/26 10:04:32;;;;;;;;;;;19.70;42.70;;;;;;1524484;75;927;-70
2024/03/26 10:06:34;;;;;;;;;;;19.70;42.60;;;;;;1528784;75;1109;-68
2024/03/26 10:08:36;;;;;;;;;;;19.70;42.10;;;;;;1539154;76;797;-68
2024/03/26 10:10:43;;;;;;;;;;;19.70;42.30;;;;;;1528856;75;809;-68
2024/03/26 10:12:45;;;;;;;;;;;19.70;42.40;;;;;;1542328;76;792;-68
2024/03/26 10:14:47;;;;;;;;;;;19.80;42.50;;;;;;1535174;75;1156;-69
2024/03/26 10:16:49;;;;;;;;;;;19.80;42.70;;;;;;1536330;75;749;-69
2024/03/26 10:18:51;;;;;;;;;;;19.70;42.80;;;;;;1532104;75;778;-67
2024/03/26 10:20:52;;;;;;;;;;;19.80;42.80;;;;;;1547131;75;1947;-67
2024/03/26 10:22:58;;;;;;;;;;;19.70;42.80;;;;;;1531820;76;729;-65
2024/03/26 10:25:00;;;;;;;;;;;19.70;42.90;;;;;;1527682;76;1162;-68
2024/03/26 10:27:02;;;;;;;;;;;19.70;43.00;;;;;;1540118;75;817;-67
2024/03/26 10:29:04;;;;;;;;;;;19.80;43.00;;;;;;1524810;77;695;-67
2024/03/26 10:31:06;;;;;;;;;;;19.80;43.10;;;;;;1536489;75;735;-67
2024/03/26 10:33:09;;;;;;;;;;;19.80;43.10;;;;;;1537376;75;742;-67
2024/03/26 10:35:11;;;;;;;;;;;19.90;43.20;;;;;;1528548;75;1135;-67
2024/03/26 10:37:13;;;;;;;;;;;19.90;43.30;;;;;;1533340;76;707;-67
2024/03/26 10:39:15;;;;;;;;;;;19.80;43.30;;;;;;1532384;76;776;-68
2024/03/26 10:41:22;;;;;;;;;;;19.80;43.30;;;;;;1533881;76;1955;-68
2024/03/26 10:43:24;;;;;;;;;;;19.80;43.30;;;;;;1523351;76;2080;-67
2024/03/26 10:45:26;;;;;;;;;;;19.90;43.40;;;;;;1536863;75;1198;-67
2024/03/26 10:47:28;;;;;;;;;;;19.80;43.40;;;;;;1540760;75;712;-68
2024/03/26 10:49:30;;;;;;;;;;;19.90;43.60;;;;;;1533333;75;714;-68
2024/03/26 10:51:32;;;;;;;;;;;19.90;43.60;;;;;;1532416;76;727;-68
2024/03/26 10:53:34;;;;;;;;;;;19.90;43.60;;;;;;1534682;76;969;-68
2024/03/26 10:55:36;;;;;;;;;;;19.90;43.60;;;;;;1524370;76;1195;-69
2024/03/26 10:57:38;;;;;;;;;;;19.90;43.70;;;;;;1546083;75;626;-66
2024/03/26 10:59:39;;;;;;;;;;;19.90;43.70;;;;;;1526278;76;1903;-68
2024/03/26 11:01:42;;;;;;;;;;;19.90;43.70;;;;;;1534225;76;755;-68
2024/03/26 11:03:44;;;;;;;;;;;19.90;43.70;;;;;;1536707;75;757;-68
2024/03/26 11:05:45;;;;;;;;;;;19.90;43.80;;;;;;1536946;75;1139;-68
2024/03/26 11:07:48;;;;;;;;;;;19.90;43.80;;;;;;1547005;75;745;-68
2024/03/26 11:10:01;;;;;;;;;;;19.90;43.90;;;;;;1536588;76;817;-67
2024/03/26 11:12:02;;;;;;;;;;;20.00;43.90;;;;;;1541610;75;1638;-68
2024/03/26 11:14:04;;;;;;;;;;;19.90;43.90;;;;;;1532566;75;735;-68
2024/03/26 11:16:06;;;;;;;;;;;20.00;44.00;;;;;;1550559;75;1123;-68
2024/03/26 11:18:08;;;;;;;;;;;19.90;44.00;;;;;;1535275;75;746;-68
2024/03/26 11:20:12;;;;;;;;;;;20.00;44.00;;;;;;1535714;75;1915;-68
2024/03/26 11:22:13;;;;;;;;;;;20.00;44.10;;;;;;1530298;75;1905;-68
2024/03/26 11:24:25;;;;;;;;;;;20.00;44.00;;;;;;1534097;76;754;-66
2024/03/26 11:26:27;;;;;;;;;;;19.90;44.10;;;;;;1532356;76;1103;-69
2024/03/26 11:28:31;;;;;;;;;;;20.00;44.20;;;;;;1526115;76;792;-67
2024/03/26 11:30:33;;;;;;;;;;;19.90;44.20;;;;;;1535433;75;814;-68
2024/03/26 11:32:35;;;;;;;;;;;20.00;44.20;;;;;;1506956;77;797;-68
2024/03/26 11:34:37;;;;;;;;;;;20.00;44.20;;;;;;1528779;76;692;-69
2024/03/26 11:36:39;;;;;;;;;;;19.90;44.20;;;;;;1542507;75;1181;-67
2024/03/26 11:38:41;;;;;;;;;;;20.00;44.20;;;;;;1534369;75;765;-68
2024/03/26 11:40:44;;;;;;;;;;;20.00;44.20;;;;;;1533007;75;1920;-69
2024/03/26 11:42:46;;;;;;;;;;;20.00;44.30;;;;;;1525838;76;754;-67
2024/03/26 11:44:48;;;;;;;;;;;20.00;44.30;;;;;;1525983;76;1194;-66
2024/03/26 11:46:50;;;;;;;;;;;20.00;44.30;;;;;;1527916;76;805;-68
2024/03/26 11:49:00;;;;;;;;;;;20.00;44.30;;;;;;1537624;75;662;-68
2024/03/26 11:51:02;;;;;;;;;;;20.00;44.30;;;;;;1537346;75;2213;-69
2024/03/26 11:53:04;;;;;;;;;;;20.00;44.40;;;;;;1533835;75;743;-66
2024/03/26 11:55:11;;;;;;;;;;;20.00;44.40;;;;;;1529305;76;1214;-69
2024/03/26 11:57:10;;;;;;;;;;;20.00;44.40;;;;;;1532327;76;1170;-69
2024/03/26 11:59:13;;;;;;;;;;;20.00;44.40;;;;;;1539345;75;1131;-69
2024/03/26 12:01:15;;;;;;;;;;;20.10;44.60;;;;;;1535645;76;1917;-69
2024/03/26 12:03:22;;;;;;;;;;;20.00;44.40;;;;;;1536436;76;1202;-67
2024/03/26 12:05:21;;;;;;;;;;;20.10;44.60;;;;;;1525788;75;1337;-70
2024/03/26 12:07:23;;;;;;;;;;;20.00;44.50;;;;;;1528952;75;1166;-67